createdAt,value
2022-07-26T00:03:08.692Z,74.20
2022-07-26T00:07:23.844Z,74.50
2022-07-26T00:11:37.599Z,74.90
2022-07-26T00:15:52.318Z,75.10
2022-07-26T00:20:07.477Z,75.20
2022-07-26T00:24:22.713Z,75.30
2022-07-26T00:28:36.609Z,75.40
2022-07-26T00:32:50.660Z,75.50
2022-07-26T00:37:04.529Z,75.40
2022-07-26T00:41:20.121Z,75.50
2022-07-26T00:45:33.894Z,75.60
2022-07-26T00:49:47.698Z,75.60
2022-07-26T00:54:01.580Z,75.50
2022-07-26T00:58:20.083Z,75.50
2022-07-26T01:02:33.896Z,75.80
2022-07-26T01:06:49.746Z,75.70
2022-07-26T01:11:03.842Z,75.70
2022-07-26T01:15:20.185Z,75.50
2022-07-26T01:19:33.945Z,75.50
2022-07-26T01:23:49.987Z,75.60
2022-07-26T01:28:04.828Z,75.50
2022-07-26T01:32:18.716Z,75.50
2022-07-26T01:36:32.626Z,75.40
2022-07-26T01:40:47.827Z,75.40
2022-07-26T01:45:01.697Z,75.40
2022-07-26T01:49:15.691Z,75.40
2022-07-26T01:53:29.598Z,75.30
2022-07-26T01:57:46.020Z,75.30
2022-07-26T02:01:59.948Z,75.10
2022-07-26T02:06:14.110Z,74.90
2022-07-26T02:10:49.974Z,74.80
2022-07-26T02:15:05.995Z,74.70
2022-07-26T02:19:19.675Z,74.50
2022-07-26T02:23:33.684Z,74.50
2022-07-26T02:27:47.370Z,74.60
2022-07-26T02:32:02.544Z,74.80
2022-07-26T02:36:16.368Z,75.10
2022-07-26T02:40:30.540Z,75.50
2022-07-26T02:44:44.242Z,76.20
2022-07-26T02:48:59.755Z,76.90
2022-07-26T02:53:13.624Z,77.50
2022-07-26T02:57:27.473Z,78.20
2022-07-26T03:01:41.233Z,78.70
2022-07-26T03:05:56.563Z,79.00
2022-07-26T03:10:10.997Z,79.20
2022-07-26T03:14:24.688Z,79.00
2022-07-26T03:18:38.967Z,78.80
2022-07-26T03:22:54.038Z,78.10
2022-07-26T03:27:07.798Z,77.40
2022-07-26T03:31:23.462Z,76.20
2022-07-26T03:35:37.348Z,75.40
2022-07-26T03:39:52.471Z,74.60
2022-07-26T03:44:06.986Z,73.90
2022-07-26T03:48:20.978Z,73.40
2022-07-26T03:52:35.109Z,73.00
2022-07-26T03:56:50.375Z,72.60
2022-07-26T04:01:04.264Z,72.40
2022-07-26T04:05:21.747Z,72.30
2022-07-26T04:09:37.768Z,72.10
2022-07-26T04:13:52.861Z,71.90
2022-07-26T04:18:06.628Z,71.70
2022-07-26T04:22:20.755Z,71.50
2022-07-26T04:26:34.649Z,71.20
2022-07-26T04:30:50.440Z,70.90
2022-07-26T04:35:04.265Z,70.40
2022-07-26T04:39:24.400Z,70.00
2022-07-26T04:43:38.193Z,69.50
2022-07-26T04:47:53.642Z,69.00
2022-07-26T04:52:07.737Z,69.30
2022-07-26T04:56:21.539Z,68.00
2022-07-26T05:00:56.475Z,67.20
2022-07-26T05:05:10.937Z,66.10
2022-07-26T05:09:24.665Z,65.20
2022-07-26T05:13:38.520Z,64.70
2022-07-26T05:17:52.274Z,64.20
2022-07-26T05:22:07.384Z,63.60
2022-07-26T05:26:21.220Z,62.50
2022-07-26T05:30:35.121Z,61.40
2022-07-26T05:34:49.003Z,60.10
2022-07-26T05:39:04.392Z,58.20
2022-07-26T05:43:18.257Z,56.40
2022-07-26T05:47:31.989Z,54.40
2022-07-26T05:51:45.936Z,52.30
2022-07-26T05:56:01.808Z,52.00
2022-07-26T06:00:16.197Z,51.80
2022-07-26T06:04:30.016Z,51.80
2022-07-26T06:08:43.852Z,51.60
2022-07-26T06:13:00.677Z,51.70
2022-07-26T06:17:14.553Z,50.10
2022-07-26T06:21:28.311Z,49.50
2022-07-26T06:25:42.345Z,48.90
2022-07-26T06:29:57.741Z,48.80
2022-07-26T06:34:11.952Z,49.50
2022-07-26T06:38:26.068Z,50.10
2022-07-26T06:42:40.209Z,50.80
2022-07-26T06:46:55.446Z,51.20
2022-07-26T06:51:10.199Z,51.10
2022-07-26T06:55:24.250Z,51.30
2022-07-26T06:59:38.825Z,51.30
2022-07-26T07:03:54.506Z,50.00
2022-07-26T07:08:08.357Z,48.20
2022-07-26T07:12:24.121Z,46.40
2022-07-26T07:16:37.914Z,44.90
2022-07-26T07:20:53.044Z,44.00
2022-07-26T07:25:07.417Z,42.90
2022-07-26T07:29:22.708Z,41.70
2022-07-26T07:33:52.574Z,40.60
2022-07-26T07:38:09.545Z,40.00
2022-07-26T07:42:23.280Z,38.00
2022-07-26T07:46:37.112Z,35.90
2022-07-26T07:50:50.887Z,35.00
2022-07-26T07:55:37.025Z,34.60
2022-07-26T07:59:42.777Z,35.10
2022-07-26T08:03:56.527Z,35.20
2022-07-26T08:08:10.282Z,34.00
2022-07-26T08:12:25.372Z,32.60
2022-07-26T08:16:39.220Z,31.40
2022-07-26T08:20:54.794Z,31.40
2022-07-26T08:25:09.583Z,30.10
2022-07-26T08:29:24.691Z,29.90
2022-07-26T08:33:40.965Z,29.50
2022-07-26T08:37:59.782Z,29.50
2022-07-26T08:42:17.602Z,28.80
2022-07-26T08:46:40.484Z,28.40
2022-07-26T08:50:55.721Z,28.40
2022-07-26T08:55:10.305Z,28.50
2022-07-26T08:59:24.573Z,29.00
2022-07-26T09:03:40.749Z,29.50
2022-07-26T09:07:54.575Z,29.80
2022-07-26T09:12:19.645Z,29.30
2022-07-26T09:16:38.740Z,28.80
2022-07-26T09:20:54.907Z,28.40
2022-07-26T09:25:22.517Z,27.80
2022-07-26T09:29:47.226Z,27.80
2022-07-26T09:34:00.993Z,27.80
2022-07-26T09:38:16.933Z,27.30
2022-07-26T09:42:30.952Z,27.30
2022-07-26T09:46:53.812Z,27.50
2022-07-26T09:51:07.943Z,27.70
2022-07-26T09:55:23.462Z,27.60
2022-07-26T09:59:40.798Z,27.40
2022-07-26T10:03:54.903Z,27.30
2022-07-26T10:08:09.367Z,27.00
2022-07-26T10:12:30.666Z,26.70
2022-07-26T10:16:44.515Z,26.80
2022-07-26T10:20:58.369Z,26.90
2022-07-26T10:25:46.687Z,26.90
2022-07-26T10:30:33.899Z,27.50
2022-07-26T10:34:49.332Z,27.90
2022-07-26T10:39:12.263Z,27.50
2022-07-26T10:43:42.911Z,26.70
2022-07-26T10:48:15.953Z,27.10
2022-07-26T10:52:31.343Z,27.40
2022-07-26T10:56:45.008Z,27.30
2022-07-26T11:01:00.902Z,27.60
2022-07-26T11:05:17.622Z,28.40
2022-07-26T11:09:35.590Z,28.90
2022-07-26T11:13:49.278Z,29.50
2022-07-26T11:18:14.749Z,30.50
2022-07-26T11:22:33.967Z,32.20
2022-07-26T11:26:48.442Z,33.70
2022-07-26T11:31:03.729Z,35.10
2022-07-26T11:35:17.620Z,36.20
2022-07-26T11:39:34.453Z,36.40
2022-07-26T11:43:48.963Z,36.80
2022-07-26T11:48:02.774Z,35.80
2022-07-26T11:52:24.901Z,34.20
2022-07-26T11:56:40.630Z,32.40
2022-07-26T12:00:54.423Z,31.00
2022-07-26T12:05:16.147Z,30.80
2022-07-26T12:09:32.410Z,31.20
2022-07-26T12:13:55.620Z,31.80
2022-07-26T12:18:10.010Z,32.50
2022-07-26T12:22:25.004Z,33.50
2022-07-26T12:26:39.565Z,34.20
2022-07-26T12:30:57.788Z,35.00
2022-07-26T12:35:14.446Z,36.00
2022-07-26T12:39:28.613Z,36.30
2022-07-26T12:43:42.621Z,36.40
2022-07-26T12:48:11.899Z,36.70
2022-07-26T12:52:26.062Z,37.40
2022-07-26T12:56:40.074Z,37.80
2022-07-26T13:00:54.100Z,38.20
2022-07-26T13:05:10.999Z,38.30
2022-07-26T13:09:30.875Z,38.60
2022-07-26T13:13:44.937Z,39.20
2022-07-26T13:17:58.720Z,39.40
2022-07-26T13:22:13.805Z,39.10
2022-07-26T13:26:27.563Z,38.80
2022-07-26T13:30:43.490Z,38.70
2022-07-26T13:34:57.404Z,38.60
2022-07-26T13:39:12.568Z,38.80
2022-07-26T13:43:26.472Z,40.70
2022-07-26T13:47:40.415Z,42.00
2022-07-26T13:52:01.180Z,43.70
2022-07-26T13:56:16.345Z,45.50
2022-07-26T14:00:31.011Z,46.50
2022-07-26T14:04:45.184Z,47.50
2022-07-26T14:08:59.153Z,47.90
2022-07-26T14:13:14.434Z,48.50
2022-07-26T14:17:28.172Z,49.00
2022-07-26T14:21:58.960Z,49.40
2022-07-26T14:26:14.714Z,50.00
2022-07-26T14:30:29.943Z,50.30
2022-07-26T14:34:43.988Z,50.40
2022-07-26T14:38:57.729Z,50.10
2022-07-26T14:43:11.504Z,49.90
2022-07-26T14:47:28.792Z,49.10
2022-07-26T14:51:42.687Z,48.10
2022-07-26T14:55:56.423Z,47.30
2022-07-26T15:00:13.598Z,46.60
2022-07-26T15:04:28.790Z,46.00
2022-07-26T15:08:42.613Z,46.80
2022-07-26T15:12:56.889Z,46.00
2022-07-26T15:17:11.222Z,45.80
2022-07-26T15:21:29.030Z,45.70
2022-07-26T15:25:42.892Z,45.80
2022-07-26T15:30:02.844Z,46.00
2022-07-26T15:34:18.964Z,45.70
2022-07-26T15:38:34.216Z,45.80
2022-07-26T15:42:50.494Z,45.90
2022-07-26T15:47:04.406Z,45.90
2022-07-26T15:51:18.318Z,45.90
2022-07-26T15:55:33.625Z,46.10
2022-07-26T15:59:47.288Z,46.20
2022-07-26T16:04:01.149Z,46.40
2022-07-26T16:08:15.154Z,46.90
2022-07-26T16:12:30.939Z,47.00
2022-07-26T16:16:45.089Z,47.10
2022-07-26T16:20:58.989Z,47.20
2022-07-26T16:25:13.907Z,47.20
2022-07-26T16:29:29.306Z,47.30
2022-07-26T16:33:46.517Z,47.30
2022-07-26T16:38:00.766Z,47.30
2022-07-26T16:42:15.400Z,47.00
2022-07-26T16:46:30.702Z,46.80
2022-07-26T16:50:44.533Z,46.70
2022-07-26T16:54:58.331Z,46.90
2022-07-26T16:59:14.121Z,47.10
2022-07-26T17:03:29.750Z,47.60
2022-07-26T17:07:43.667Z,48.10
2022-07-26T17:11:57.352Z,48.60
2022-07-26T17:16:11.149Z,49.30
2022-07-26T17:20:27.241Z,50.00
2022-07-26T17:24:41.017Z,50.60
2022-07-26T17:28:54.669Z,51.10
2022-07-26T17:33:08.530Z,51.40
2022-07-26T17:37:23.757Z,51.60
2022-07-26T17:41:37.598Z,51.70
2022-07-26T17:45:54.294Z,51.80
2022-07-26T17:54:45.883Z,52.00
2022-07-26T17:58:59.691Z,52.00
2022-07-26T18:03:13.474Z,52.20
2022-07-26T18:07:27.498Z,52.10
2022-07-26T18:11:42.951Z,52.10
2022-07-26T18:15:57.459Z,52.10
2022-07-26T18:20:12.482Z,52.00
2022-07-26T18:24:26.941Z,52.00
2022-07-26T18:28:41.986Z,51.70
2022-07-26T18:33:00.692Z,51.60
2022-07-26T18:37:14.429Z,51.60
2022-07-26T18:41:29.259Z,51.50
2022-07-26T18:45:45.997Z,51.60
2022-07-26T18:49:59.768Z,51.70
2022-07-26T18:54:13.534Z,51.90
2022-07-26T18:58:28.549Z,52.10
2022-07-26T19:02:45.346Z,52.30
2022-07-26T19:06:59.086Z,52.60
2022-07-26T19:11:12.792Z,52.90
2022-07-26T19:15:26.658Z,53.20
2022-07-26T19:19:42.944Z,53.60
2022-07-26T19:23:56.854Z,54.00
2022-07-26T19:28:10.583Z,54.50
2022-07-26T19:32:24.686Z,54.90
2022-07-26T19:36:39.979Z,55.20
2022-07-26T19:40:55.259Z,55.60
2022-07-26T19:45:09.731Z,56.00
2022-07-26T19:49:23.474Z,56.60
2022-07-26T19:53:38.607Z,57.00
2022-07-26T19:57:52.460Z,57.50
2022-07-26T20:02:06.652Z,57.80
2022-07-26T20:06:20.810Z,58.20
2022-07-26T20:10:36.076Z,58.60
2022-07-26T20:14:49.816Z,58.90
2022-07-26T20:19:03.594Z,59.00
2022-07-26T20:23:17.346Z,59.10
2022-07-26T20:27:32.695Z,59.10
2022-07-26T20:31:46.622Z,59.10
2022-07-26T20:36:00.473Z,59.10
2022-07-26T20:40:15.508Z,59.00
2022-07-26T20:44:33.828Z,59.00
2022-07-26T20:48:48.314Z,58.80
2022-07-26T20:53:02.250Z,58.80
2022-07-26T20:57:15.989Z,58.70
2022-07-26T21:01:31.903Z,58.70
2022-07-26T21:05:45.992Z,58.80
2022-07-26T21:09:59.636Z,59.00
2022-07-26T21:14:13.362Z,59.00
2022-07-26T21:18:29.916Z,59.20
2022-07-26T21:22:43.958Z,59.30
2022-07-26T21:26:57.672Z,59.40
2022-07-26T21:31:11.405Z,59.60
2022-07-26T21:35:26.677Z,59.70
2022-07-26T21:39:40.398Z,59.80
2022-07-26T21:43:54.202Z,59.80
2022-07-26T21:48:08.349Z,59.90
2022-07-26T21:52:23.433Z,59.80
2022-07-26T21:56:37.125Z,60.00
2022-07-26T22:00:50.903Z,60.00
2022-07-26T22:05:24.975Z,60.00
2022-07-26T22:09:40.323Z,60.00
2022-07-26T22:13:54.155Z,60.00
2022-07-26T22:18:09.846Z,60.20
2022-07-26T22:22:23.844Z,60.10
2022-07-26T22:26:41.138Z,60.30
2022-07-26T22:30:55.251Z,60.30
2022-07-26T22:35:09.856Z,60.30
2022-07-26T22:39:23.725Z,60.20
2022-07-26T22:43:39.167Z,60.20
2022-07-26T22:47:56.487Z,60.00
2022-07-26T22:52:10.376Z,59.90
2022-07-26T22:56:24.094Z,59.80
2022-07-26T23:00:39.222Z,59.70
2022-07-26T23:04:53.002Z,59.70
2022-07-26T23:09:06.743Z,59.70
2022-07-26T23:13:20.449Z,59.60
2022-07-26T23:17:35.607Z,59.50
2022-07-26T23:21:51.181Z,59.30
2022-07-26T23:26:04.944Z,59.10
2022-07-26T23:30:18.666Z,59.10
2022-07-26T23:34:33.796Z,59.00
2022-07-26T23:38:47.471Z,59.00
2022-07-26T23:43:01.151Z,59.00
2022-07-26T23:47:14.987Z,58.70
2022-07-26T23:51:30.147Z,58.80
2022-07-26T23:55:43.876Z,58.70
